Time;durP1;ratioP1;P1;durP2;ratioP2;P2;SDS_P1;SDS_P2;PMS_P1;PMS_P2;Temp;Humidity;BMP_temperature;BMP_pressure;BME280_temperature;BME280_humidity;BME280_pressure;Samples;Min_cycle;Max_cycle;Signal;HPM_P1;HPM_P2
2022/08/26 00:00:10;;;;;;;12.75;7.47;;;27.00;77.50;;;;;;5025623;28;20047;-84
2022/08/26 00:02:36;;;;;;;12.93;8.50;;;27.00;77.70;;;;;;5077067;28;20024;-83
2022/08/26 00:05:02;;;;;;;12.00;7.65;;;26.90;77.80;;;;;;5095795;28;20039;-83
2022/08/26 00:07:28;;;;;;;13.98;7.53;;;26.80;78.00;;;;;;5079094;28;20118;-83
2022/08/26 00:09:54;;;;;;;12.18;7.40;;;26.80;78.20;;;;;;5052946;28;20631;-82
2022/08/26 00:12:19;;;;;;;12.50;7.75;;;26.80;78.30;;;;;;5047337;28;20396;-83
2022/08/26 00:14:45;;;;;;;11.85;6.97;;;26.70;78.50;;;;;;5040643;28;20024;-85
2022/08/26 00:17:11;;;;;;;12.20;7.00;;;26.70;79.40;;;;;;5068348;28;20037;-83
2022/08/26 00:19:37;;;;;;;9.45;6.45;;;26.70;78.80;;;;;;5076523;28;20056;-83
2022/08/26 00:22:03;;;;;;;11.80;6.65;;;26.70;78.90;;;;;;5060683;28;20044;-83
2022/08/26 00:24:29;;;;;;;10.63;6.45;;;26.60;79.00;;;;;;5064628;28;20052;-83
2022/08/26 00:26:55;;;;;;;12.80;6.78;;;26.60;79.20;;;;;;5077096;28;20101;-83
2022/08/26 00:29:20;;;;;;;13.00;6.72;;;26.60;79.40;;;;;;5066865;28;20467;-83
2022/08/26 00:31:46;;;;;;;9.77;6.10;;;26.60;79.50;;;;;;5024782;28;20464;-82
2022/08/26 00:34:13;;;;;;;12.05;6.88;;;26.50;79.60;;;;;;5057537;28;20029;-83
2022/08/26 00:36:38;;;;;;;10.38;6.25;;;26.50;79.80;;;;;;5057910;28;20036;-84
2022/08/26 00:39:05;;;;;;;8.38;5.53;;;26.50;79.90;;;;;;5057792;28;20037;-83
2022/08/26 00:41:31;;;;;;;8.65;5.43;;;26.40;79.90;;;;;;5074861;28;20055;-82
2022/08/26 00:43:57;;;;;;;10.02;5.65;;;26.40;80.00;;;;;;5057522;28;20127;-83
2022/08/26 00:46:28;;;;;;;11.50;5.55;;;26.40;80.10;;;;;;5052578;28;20500;-83
2022/08/26 00:49:02;;;;;;;10.10;4.95;;;26.40;80.20;;;;;;5063599;28;20584;-83
2022/08/26 00:51:28;;;;;;;11.32;5.15;;;26.40;80.40;;;;;;5066587;28;20021;-83
2022/08/26 00:53:58;;;;;;;6.60;4.40;;;26.30;80.40;;;;;;5057337;28;20028;-83
2022/08/26 00:56:34;;;;;;;9.13;4.90;;;26.30;80.60;;;;;;5048556;28;20068;-82
2022/08/26 00:59:05;;;;;;;7.00;4.10;;;26.30;80.80;;;;;;5072313;28;20033;-82
2022/08/26 01:01:31;;;;;;;9.82;4.43;;;26.20;80.90;;;;;;5075680;28;20028;-82
2022/08/26 01:03:58;;;;;;;9.50;4.65;;;26.20;81.10;;;;;;5057257;28;20024;-83
2022/08/26 01:06:26;;;;;;;8.15;4.25;;;26.20;81.30;;;;;;5065460;28;20024;-82
2022/08/26 01:08:52;;;;;;;6.50;3.58;;;26.20;81.40;;;;;;5065712;28;20418;-83
2022/08/26 01:11:18;;;;;;;6.70;3.85;;;26.10;81.50;;;;;;5072762;28;20020;-83
2022/08/26 01:13:44;;;;;;;7.53;3.90;;;26.10;81.60;;;;;;5041678;28;20024;-83
2022/08/26 01:16:15;;;;;;;8.73;3.83;;;26.10;81.80;;;;;;5042101;28;20395;-82
2022/08/26 01:18:42;;;;;;;9.43;4.07;;;26.00;81.90;;;;;;5059173;28;20024;-83
2022/08/26 01:21:39;;;;;;;6.55;3.72;;;26.00;81.90;;;;;;5061930;28;20044;-82
2022/08/26 01:24:06;;;;;;;7.28;3.15;;;26.00;82.10;;;;;;5067327;28;20071;-81
2022/08/26 01:26:35;;;;;;;8.48;3.42;;;26.00;82.20;;;;;;5050763;28;20045;-83
2022/08/26 01:29:04;;;;;;;6.10;3.25;;;25.90;82.30;;;;;;5068392;28;20106;-82
2022/08/26 01:31:42;;;;;;;7.30;3.35;;;25.90;82.40;;;;;;5073573;28;20020;-82
2022/08/26 01:34:19;;;;;;;7.90;2.92;;;25.80;82.50;;;;;;5069330;28;20150;-82
2022/08/26 01:36:46;;;;;;;7.47;3.58;;;25.80;82.60;;;;;;5075871;28;20028;-84
2022/08/26 01:39:12;;;;;;;7.80;3.20;;;25.80;82.70;;;;;;5074959;28;20056;-82
2022/08/26 01:41:39;;;;;;;5.45;2.88;;;25.80;82.90;;;;;;5075395;28;20025;-83
2022/08/26 01:44:07;;;;;;;5.25;2.83;;;25.80;83.00;;;;;;5040654;28;20031;-83
2022/08/26 01:46:33;;;;;;;6.25;3.00;;;25.70;83.00;;;;;;5075884;28;20471;-83
2022/08/26 01:49:02;;;;;;;6.82;2.97;;;25.70;83.20;;;;;;5073312;28;20028;-83
2022/08/26 01:51:35;;;;;;;8.48;2.85;;;25.70;83.40;;;;;;5091317;28;20373;-83
2022/08/26 01:54:03;;;;;;;5.82;2.78;;;25.60;83.40;;;;;;5086960;28;20070;-83
2022/08/26 01:56:29;;;;;;;10.48;3.17;;;25.60;83.50;;;;;;5069225;28;20464;-84
2022/08/26 01:58:57;;;;;;;7.03;3.25;;;25.60;83.60;;;;;;5070033;28;20039;-83
2022/08/26 02:01:24;;;;;;;8.07;3.00;;;25.60;83.70;;;;;;5068043;28;20021;-82
2022/08/26 02:04:26;;;;;;;6.05;2.45;;;25.60;83.80;;;;;;5070977;28;20043;-84
2022/08/26 02:06:52;;;;;;;4.88;2.35;;;25.60;84.00;;;;;;5088818;28;20049;-83
2022/08/26 02:09:19;;;;;;;5.57;2.80;;;25.50;84.00;;;;;;5084383;28;20103;-83
2022/08/26 02:11:45;;;;;;;9.00;2.75;;;25.50;84.10;;;;;;5058255;28;20090;-83
2022/08/26 02:14:19;;;;;;;5.85;2.55;;;25.50;84.30;;;;;;5043648;28;20056;-83
2022/08/26 02:16:47;;;;;;;6.57;2.45;;;25.40;84.30;;;;;;5083701;28;20024;-84
2022/08/26 02:19:16;;;;;;;5.82;2.40;;;25.40;84.40;;;;;;5076226;28;20032;-83
2022/08/26 02:21:44;;;;;;;5.28;2.30;;;25.40;84.50;;;;;;5074327;28;20024;-83
2022/08/26 02:24:16;;;;;;;5.63;2.47;;;25.30;84.60;;;;;;5056325;28;20027;-83
2022/08/26 02:26:44;;;;;;;8.55;3.10;;;25.30;84.80;;;;;;5055662;28;20048;-83
2022/08/26 02:29:22;;;;;;;4.85;2.13;;;25.30;84.90;;;;;;5074193;28;20025;-84
2022/08/26 02:31:49;;;;;;;5.43;2.30;;;25.30;85.20;;;;;;5090429;28;20028;-83
2022/08/26 02:34:20;;;;;;;5.15;2.30;;;25.30;85.30;;;;;;5056241;28;20026;-83
2022/08/26 02:36:47;;;;;;;7.82;3.00;;;25.30;85.60;;;;;;5073706;28;20024;-83
2022/08/26 02:39:13;;;;;;;4.95;2.42;;;25.20;85.60;;;;;;5072118;28;20546;-83
2022/08/26 02:41:39;;;;;;;5.57;2.63;;;25.20;85.70;;;;;;5104059;28;20032;-83
2022/08/26 02:44:06;;;;;;;9.07;2.65;;;25.20;85.90;;;;;;5076446;28;20491;-83
2022/08/26 02:46:31;;;;;;;9.43;2.70;;;25.10;85.90;;;;;;5075958;28;20387;-83
2022/08/26 02:48:57;;;;;;;7.85;2.65;;;25.10;86.00;;;;;;5075373;28;20058;-83
2022/08/26 02:51:23;;;;;;;6.05;2.03;;;25.10;86.20;;;;;;5059425;28;20040;-83
2022/08/26 02:53:48;;;;;;;5.35;2.47;;;25.10;86.30;;;;;;5055631;28;20465;-83
2022/08/26 02:56:14;;;;;;;6.43;2.55;;;25.00;86.40;;;;;;5056194;28;20376;-83
2022/08/26 02:58:40;;;;;;;5.32;2.22;;;25.00;86.40;;;;;;5076789;28;20460;-82
2022/08/26 03:01:05;;;;;;;4.60;1.80;;;25.00;86.60;;;;;;5040075;28;20057;-83
2022/08/26 03:03:31;;;;;;;10.20;2.67;;;25.00;86.70;;;;;;5056524;28;20463;-83
2022/08/26 03:05:57;;;;;;;8.38;2.45;;;25.00;86.80;;;;;;5057214;28;20060;-83
2022/08/26 03:08:23;;;;;;;5.60;1.85;;;24.90;86.90;;;;;;5072981;28;20107;-83
2022/08/26 03:10:49;;;;;;;7.57;2.00;;;24.90;87.00;;;;;;5057444;28;20049;-83
2022/08/26 03:13:15;;;;;;;6.97;2.45;;;24.90;87.10;;;;;;5073356;28;20055;-83
2022/08/26 03:15:40;;;;;;;5.38;2.25;;;24.90;87.20;;;;;;5074421;28;20084;-83
2022/08/26 03:18:07;;;;;;;4.05;1.55;;;24.80;87.20;;;;;;5083746;28;20067;-83
2022/08/26 03:20:32;;;;;;;7.93;1.90;;;24.80;87.30;;;;;;5082859;28;20076;-83
2022/08/26 03:22:58;;;;;;;4.82;1.65;;;24.80;87.40;;;;;;5096220;28;20025;-83
2022/08/26 03:25:49;;;;;;;6.30;1.77;;;24.80;87.60;;;;;;5086393;28;20031;-82
2022/08/26 03:28:14;;;;;;;3.88;1.70;;;24.80;87.70;;;;;;5091187;28;20356;-82
2022/08/26 03:30:40;;;;;;;5.30;1.70;;;24.80;87.80;;;;;;5062859;28;20032;-83
2022/08/26 03:33:08;;;;;;;4.85;1.92;;;24.80;87.90;;;;;;5079211;28;20028;-82
2022/08/26 03:35:34;;;;;;;3.80;1.58;;;24.70;88.00;;;;;;5079268;28;20052;-82
2022/08/26 03:38:00;;;;;;;5.55;1.85;;;24.70;88.10;;;;;;5095824;28;20082;-82
2022/08/26 03:40:26;;;;;;;5.05;1.98;;;24.70;88.30;;;;;;5042240;28;20032;-82
2022/08/26 03:42:52;;;;;;;4.45;1.55;;;24.70;88.40;;;;;;5041644;28;20035;-83
2022/08/26 03:45:19;;;;;;;4.25;2.00;;;24.60;88.50;;;;;;5042459;28;20028;-83
2022/08/26 03:47:46;;;;;;;5.35;1.60;;;24.60;88.50;;;;;;5076690;28;20032;-83
2022/08/26 03:50:14;;;;;;;4.18;1.80;;;24.60;88.80;;;;;;5042278;28;20032;-82
2022/08/26 03:52:41;;;;;;;5.05;1.60;;;24.60;88.90;;;;;;5076521;28;20028;-83
2022/08/26 03:55:07;;;;;;;3.50;1.80;;;24.60;88.90;;;;;;5093050;28;20028;-83
2022/08/26 03:57:33;;;;;;;4.93;1.60;;;24.60;89.00;;;;;;5069990;28;20033;-82
2022/08/26 03:59:59;;;;;;;8.30;2.08;;;24.60;89.20;;;;;;5058288;28;20116;-82
2022/08/26 04:02:26;;;;;;;5.93;2.08;;;24.60;89.30;;;;;;5023940;28;20021;-82
2022/08/26 04:04:52;;;;;;;5.97;1.70;;;24.60;89.50;;;;;;5050149;28;20044;-82
2022/08/26 04:07:18;;;;;;;7.32;2.08;;;24.60;89.60;;;;;;5062864;28;20039;-82
2022/08/26 04:09:43;;;;;;;3.78;1.85;;;24.50;89.60;;;;;;5041502;28;20028;-83
2022/08/26 04:12:09;;;;;;;5.93;2.00;;;24.50;89.70;;;;;;5059604;28;20056;-82
2022/08/26 04:14:36;;;;;;;2.88;1.50;;;24.60;89.80;;;;;;5042644;28;20075;-82
2022/08/26 04:17:03;;;;;;;4.35;1.70;;;24.60;89.90;;;;;;5075934;28;20032;-84
2022/08/26 04:19:30;;;;;;;4.57;1.42;;;24.50;90.00;;;;;;5058058;28;20094;-82
2022/08/26 04:21:55;;;;;;;4.20;1.55;;;24.50;90.00;;;;;;5058087;28;20171;-82
2022/08/26 04:24:24;;;;;;;4.32;1.50;;;24.50;90.00;;;;;;5076455;28;20500;-82
2022/08/26 04:26:50;;;;;;;4.70;1.33;;;24.50;90.10;;;;;;5057808;28;20051;-83
2022/08/26 04:29:19;;;;;;;4.72;1.33;;;24.50;90.10;;;;;;5058196;28;20029;-83
2022/08/26 04:31:46;;;;;;;3.83;1.15;;;24.50;90.10;;;;;;5075814;28;20457;-84
2022/08/26 04:34:12;;;;;;;6.40;2.03;;;24.40;90.10;;;;;;5041209;28;20114;-83
2022/08/26 04:36:39;;;;;;;3.50;1.42;;;24.40;90.10;;;;;;5075550;28;20072;-84
2022/08/26 04:39:05;;;;;;;4.65;1.20;;;24.40;90.10;;;;;;5043316;28;20029;-86
2022/08/26 04:41:32;;;;;;;5.80;1.27;;;24.40;90.20;;;;;;5051416;28;20035;-82
2022/08/26 04:43:57;;;;;;;4.45;1.40;;;24.40;90.20;;;;;;5095913;28;20095;-81
2022/08/26 04:46:24;;;;;;;5.65;1.52;;;24.40;90.20;;;;;;5049922;28;20124;-82
2022/08/26 04:48:52;;;;;;;4.40;1.40;;;24.40;90.30;;;;;;5056474;28;20020;-82
2022/08/26 04:51:20;;;;;;;4.70;1.48;;;24.30;90.30;;;;;;5065262;28;20103;-83
2022/08/26 04:53:45;;;;;;;3.67;1.30;;;24.40;90.30;;;;;;5055844;28;20533;-82
2022/08/26 04:56:13;;;;;;;5.47;1.38;;;24.30;90.30;;;;;;5034810;28;20116;-83
2022/08/26 04:58:38;;;;;;;5.18;1.38;;;24.30;90.40;;;;;;5090598;28;20052;-82
2022/08/26 05:01:05;;;;;;;4.65;1.50;;;24.30;90.40;;;;;;5053540;28;20078;-83
2022/08/26 05:03:31;;;;;;;4.35;1.23;;;24.30;90.40;;;;;;5053342;28;20040;-82
2022/08/26 05:05:58;;;;;;;5.95;1.40;;;24.30;90.50;;;;;;5039776;28;20404;-84
2022/08/26 05:08:24;;;;;;;5.03;1.60;;;24.30;90.50;;;;;;5023830;28;20043;-83
2022/08/26 05:10:56;;;;;;;5.47;1.50;;;24.30;90.50;;;;;;5074456;28;20095;-82
2022/08/26 05:13:25;;;;;;;4.10;1.58;;;24.30;90.60;;;;;;5072852;28;20017;-82
2022/08/26 05:15:51;;;;;;;7.13;1.52;;;24.30;90.90;;;;;;5052604;28;20476;-85
2022/08/26 05:18:20;;;;;;;5.03;1.80;;;24.30;90.60;;;;;;5038565;28;20667;-84
2022/08/26 05:20:49;;;;;;;4.05;1.08;;;24.30;90.70;;;;;;5051137;28;20103;-84
2022/08/26 05:23:16;;;;;;;3.50;1.30;;;24.20;90.60;;;;;;5062323;28;20038;-84
2022/08/26 05:25:44;;;;;;;4.85;1.23;;;24.20;90.70;;;;;;5064005;28;20053;-84
2022/08/26 05:28:12;;;;;;;3.72;1.30;;;24.20;90.70;;;;;;5058971;28;20043;-85
2022/08/26 05:30:38;;;;;;;6.10;1.20;;;24.20;90.70;;;;;;5038286;28;20072;-84
2022/08/26 05:33:05;;;;;;;4.18;1.10;;;24.20;90.70;;;;;;5035436;28;20057;-83
2022/08/26 05:35:33;;;;;;;6.05;1.40;;;24.20;90.80;;;;;;5059713;28;20474;-83
2022/08/26 05:38:05;;;;;;;3.92;1.10;;;24.20;90.80;;;;;;5036284;28;20067;-83
2022/08/26 05:40:34;;;;;;;4.55;1.13;;;24.20;90.80;;;;;;5027255;28;20021;-83
2022/08/26 05:43:00;;;;;;;3.17;1.23;;;24.20;90.90;;;;;;5063483;28;20108;-83
2022/08/26 05:45:26;;;;;;;4.22;0.93;;;24.20;90.90;;;;;;5036401;28;20052;-83
2022/08/26 05:47:52;;;;;;;7.72;1.75;;;24.20;91.00;;;;;;5031032;28;20506;-83
2022/08/26 05:50:24;;;;;;;4.25;0.95;;;24.20;91.00;;;;;;5053131;28;20092;-81
2022/08/26 05:52:51;;;;;;;7.35;1.50;;;24.20;91.00;;;;;;5065785;28;20017;-83
2022/08/26 05:55:17;;;;;;;7.10;1.55;;;24.20;91.10;;;;;;5034478;28;20020;-83
2022/08/26 05:57:43;;;;;;;5.43;1.38;;;24.20;91.10;;;;;;5016789;28;20069;-83
2022/08/26 06:00:11;;;;;;;4.35;1.40;;;24.20;91.10;;;;;;5050065;28;20051;-83
2022/08/26 06:02:38;;;;;;;4.75;1.48;;;24.20;91.20;;;;;;5048422;28;20473;-84
2022/08/26 06:05:05;;;;;;;6.25;1.73;;;24.20;91.20;;;;;;5035959;28;20031;-83
2022/08/26 06:10:19;;;;;;;4.03;1.30;;;24.20;91.30;;;;;;5037654;28;20408;-85
2022/08/26 06:12:45;;;;;;;5.55;1.48;;;24.20;91.30;;;;;;5021037;28;20056;-85
2022/08/26 06:15:11;;;;;;;3.97;1.35;;;24.20;91.30;;;;;;5070002;28;20033;-84
2022/08/26 06:17:37;;;;;;;4.32;1.42;;;24.10;91.30;;;;;;5021151;28;20031;-82
2022/08/26 06:20:03;;;;;;;4.15;1.48;;;24.20;91.40;;;;;;5079462;28;20041;-84
2022/08/26 06:27:58;;;;;;;5.38;1.10;;;24.20;91.40;;;;;;5060569;28;20466;-82
2022/08/26 06:30:24;;;;;;;4.05;1.52;;;24.10;91.40;;;;;;5052331;28;20495;-84
2022/08/26 06:32:50;;;;;;;4.18;1.25;;;24.20;91.40;;;;;;5021677;28;20051;-84
2022/08/26 06:35:16;;;;;;;3.05;1.20;;;24.10;91.40;;;;;;5066017;28;20472;-82
2022/08/26 06:37:42;;;;;;;3.95;1.08;;;24.20;91.40;;;;;;5071622;28;20033;-83
2022/08/26 06:40:08;;;;;;;5.15;1.55;;;24.20;91.40;;;;;;5068809;28;20029;-82
2022/08/26 06:42:34;;;;;;;6.03;1.58;;;24.20;91.40;;;;;;5038196;28;20029;-82
2022/08/26 06:45:00;;;;;;;6.47;2.10;;;24.20;91.40;;;;;;5071529;28;20420;-86
2022/08/26 06:47:26;;;;;;;6.00;1.60;;;24.20;91.40;;;;;;5038015;28;20101;-83
2022/08/26 06:49:52;;;;;;;3.63;1.27;;;24.20;91.30;;;;;;5054701;28;20027;-82
2022/08/26 06:52:17;;;;;;;5.47;1.10;;;24.20;91.30;;;;;;5054467;28;20025;-83
2022/08/26 06:54:43;;;;;;;5.43;1.50;;;24.20;91.30;;;;;;5087836;28;20036;-82
2022/08/26 06:57:10;;;;;;;3.03;1.20;;;24.20;91.30;;;;;;5071636;28;20036;-82
2022/08/26 06:59:36;;;;;;;5.40;1.60;;;24.20;91.20;;;;;;5047946;28;20044;-81
2022/08/26 07:02:02;;;;;;;6.07;1.73;;;24.20;91.20;;;;;;5018762;28;20041;-82
2022/08/26 07:04:28;;;;;;;6.07;1.80;;;24.10;91.20;;;;;;5036540;28;20037;-82
2022/08/26 07:06:55;;;;;;;6.55;1.55;;;24.20;91.10;;;;;;5035869;28;20090;-81
2022/08/26 07:09:23;;;;;;;4.57;1.58;;;24.20;91.10;;;;;;5053264;28;20021;-82
2022/08/26 07:11:50;;;;;;;4.57;1.10;;;24.20;91.10;;;;;;5052295;28;20028;-82
2022/08/26 07:14:17;;;;;;;5.65;1.70;;;24.20;91.10;;;;;;5055089;28;20033;-82
2022/08/26 07:16:43;;;;;;;5.68;1.30;;;24.20;91.00;;;;;;5034700;28;20041;-82
2022/08/26 07:19:09;;;;;;;4.30;1.13;;;24.20;91.00;;;;;;5038270;28;20379;-81
2022/08/26 07:21:35;;;;;;;3.65;1.20;;;24.20;91.00;;;;;;5046833;28;20024;-81
2022/08/26 07:24:01;;;;;;;3.63;1.13;;;24.20;91.00;;;;;;5073229;28;20029;-81
2022/08/26 07:30:30;;;;;;;4.18;1.20;;;24.20;90.90;;;;;;5092506;28;20382;-81
2022/08/26 07:40:36;;;;;;;5.20;1.40;;;24.20;90.90;;;;;;5092819;28;20032;-81
2022/08/26 07:43:23;;;;;;;5.53;1.15;;;24.10;90.90;;;;;;5095249;28;20440;-82
2022/08/26 07:45:49;;;;;;;3.35;1.15;;;24.20;90.90;;;;;;5053116;28;20129;-81
2022/08/26 07:48:15;;;;;;;3.88;1.40;;;24.20;90.90;;;;;;5019551;28;20541;-81
2022/08/26 07:50:41;;;;;;;5.95;1.30;;;24.20;90.90;;;;;;5039041;28;20043;-82
2022/08/26 07:53:07;;;;;;;4.47;1.23;;;24.20;90.90;;;;;;5022691;28;20483;-81
2022/08/26 07:55:42;;;;;;;3.35;1.10;;;24.20;90.80;;;;;;5022519;28;20067;-82
2022/08/26 07:58:13;;;;;;;3.65;1.42;;;24.20;90.80;;;;;;5038763;28;20500;-82
2022/08/26 08:00:39;;;;;;;3.20;1.15;;;24.20;90.80;;;;;;5072868;28;20085;-81
2022/08/26 08:03:05;;;;;;;5.60;1.52;;;24.30;90.80;;;;;;5052566;28;20470;-82
2022/08/26 08:09:13;;;;;;;5.05;1.27;;;24.30;90.70;;;;;;5076394;28;20082;-82
2022/08/26 08:15:00;;;;;;;5.63;1.70;;;24.30;90.90;;;;;;5076301;28;20023;-80
2022/08/26 08:17:26;;;;;;;4.47;1.23;;;24.30;90.90;;;;;;5040634;28;20028;-81
2022/08/26 08:19:52;;;;;;;4.22;1.20;;;24.30;90.90;;;;;;5056654;28;20394;-81
2022/08/26 08:22:17;;;;;;;3.38;1.27;;;24.30;91.00;;;;;;5036940;28;20052;-84
2022/08/26 08:24:43;;;;;;;7.13;1.65;;;24.30;91.00;;;;;;5015992;28;20064;-84
2022/08/26 08:27:09;;;;;;;5.70;1.60;;;24.30;91.00;;;;;;5035901;28;20043;-83
2022/08/26 08:29:38;;;;;;;6.60;1.27;;;24.30;91.00;;;;;;5031377;28;20057;-84
2022/08/26 08:32:04;;;;;;;5.10;1.38;;;24.30;91.10;;;;;;5075660;28;20063;-83
2022/08/26 08:34:30;;;;;;;5.50;1.40;;;24.30;91.10;;;;;;5048132;28;20021;-86
2022/08/26 08:36:56;;;;;;;4.80;1.20;;;24.30;91.20;;;;;;5033078;28;20029;-84
2022/08/26 08:39:22;;;;;;;5.90;1.23;;;24.30;91.20;;;;;;5069030;28;20086;-84
2022/08/26 08:42:14;;;;;;;11.85;1.55;;;24.20;91.20;;;;;;5053632;28;20051;-84
2022/08/26 08:44:47;;;;;;;4.25;1.27;;;24.30;91.30;;;;;;5061161;28;20037;-85
2022/08/26 08:47:30;;;;;;;6.72;1.30;;;24.20;91.30;;;;;;5056538;28;20104;-84
2022/08/26 08:50:02;;;;;;;3.75;1.38;;;24.30;91.30;;;;;;5074629;28;20029;-84
2022/08/26 08:52:34;;;;;;;4.40;1.00;;;24.30;91.30;;;;;;5056974;28;20066;-83
2022/08/26 08:55:06;;;;;;;5.63;1.48;;;24.30;91.30;;;;;;5072894;28;20032;-83
2022/08/26 08:57:41;;;;;;;19.75;1.85;;;24.30;91.30;;;;;;5073656;28;20051;-84
2022/08/26 09:05:24;;;;;;;7.35;1.75;;;24.30;91.40;;;;;;5029903;28;20052;-85
2022/08/26 09:08:03;;;;;;;7.25;1.50;;;24.30;91.50;;;;;;5019379;28;20029;-85
2022/08/26 09:10:54;;;;;;;6.85;1.40;;;24.30;91.40;;;;;;5019096;28;20022;-84
2022/08/26 09:13:22;;;;;;;6.03;1.38;;;24.30;91.40;;;;;;5007895;28;20091;-90
2022/08/26 09:16:05;;;;;;;3.33;1.30;;;24.30;91.40;;;;;;5010018;28;20097;-89
2022/08/26 09:18:55;;;;;;;4.65;1.33;;;24.30;91.40;;;;;;5025438;28;20041;-89
2022/08/26 09:21:22;;;;;;;7.03;1.40;;;24.30;91.40;;;;;;5021912;28;20048;-88
2022/08/26 09:23:49;;;;;;;5.82;1.17;;;24.30;91.40;;;;;;5036545;28;20095;-89
2022/08/26 09:26:15;;;;;;;5.88;1.17;;;24.30;91.50;;;;;;4989895;28;20037;-86
2022/08/26 09:28:46;;;;;;;5.22;1.52;;;24.30;91.50;;;;;;5016528;28;20026;-85
2022/08/26 09:31:21;;;;;;;8.05;2.13;;;24.30;91.50;;;;;;5035815;28;20371;-85
2022/08/26 09:33:48;;;;;;;4.85;1.30;;;24.30;91.50;;;;;;5017855;28;20014;-85
2022/08/26 09:36:37;;;;;;;6.95;1.73;;;24.30;91.50;;;;;;5001578;28;20026;-85
2022/08/26 09:39:12;;;;;;;4.65;1.17;;;24.30;91.50;;;;;;5011881;28;20033;-86
2022/08/26 09:41:38;;;;;;;6.47;1.50;;;24.30;91.40;;;;;;5017918;28;20029;-86
2022/08/26 09:44:15;;;;;;;5.40;1.20;;;24.30;91.40;;;;;;5017992;28;20030;-85
2022/08/26 09:46:56;;;;;;;6.75;1.60;;;24.30;91.50;;;;;;5017648;28;20075;-86
2022/08/26 09:49:24;;;;;;;4.95;1.30;;;24.30;91.40;;;;;;5017746;28;20528;-85
2022/08/26 09:52:12;;;;;;;6.07;1.40;;;24.30;91.40;;;;;;5017756;28;20033;-86
2022/08/26 09:54:38;;;;;;;4.78;1.30;;;24.30;91.40;;;;;;5004843;28;20018;-85
2022/08/26 09:57:20;;;;;;;3.83;1.15;;;24.30;91.40;;;;;;4984849;28;20168;-85
2022/08/26 09:59:48;;;;;;;4.35;1.30;;;24.30;91.40;;;;;;5013548;28;20131;-85
2022/08/26 10:02:35;;;;;;;5.03;1.17;;;24.30;91.40;;;;;;4999583;28;20503;-85
2022/08/26 10:05:05;;;;;;;4.88;1.40;;;24.30;91.50;;;;;;5012540;28;20053;-85
2022/08/26 10:07:44;;;;;;;5.93;1.13;;;24.40;91.50;;;;;;5014225;28;20026;-86
2022/08/26 10:10:16;;;;;;;4.68;1.23;;;24.40;91.50;;;;;;5009497;28;20139;-85
2022/08/26 10:13:08;;;;;;;5.45;1.25;;;24.40;91.40;;;;;;5017099;28;20069;-90
2022/08/26 10:16:13;;;;;;;7.00;1.33;;;24.40;91.40;;;;;;5018002;28;20018;-88
2022/08/26 10:19:02;;;;;;;4.43;1.20;;;24.40;91.40;;;;;;5011177;28;20057;-89
2022/08/26 10:21:37;;;;;;;4.93;1.10;;;24.40;91.40;;;;;;5014084;28;20025;-88
2022/08/26 10:24:05;;;;;;;3.72;1.60;;;24.40;91.40;;;;;;5033580;28;20482;-87
2022/08/26 10:26:34;;;;;;;4.82;1.30;;;24.40;91.30;;;;;;5034054;28;20040;-88
2022/08/26 10:29:08;;;;;;;5.53;1.58;;;24.40;91.30;;;;;;5017506;28;20139;-88
2022/08/26 10:31:43;;;;;;;6.78;1.30;;;24.40;91.20;;;;;;5016646;28;20018;-88
2022/08/26 10:34:10;;;;;;;3.95;1.00;;;24.40;91.10;;;;;;5028406;28;20037;-88
2022/08/26 10:36:50;;;;;;;5.05;1.48;;;24.40;91.00;;;;;;5000902;28;20029;-88
2022/08/26 10:39:25;;;;;;;4.13;1.30;;;24.30;90.90;;;;;;5016828;28;20033;-88
2022/08/26 10:41:58;;;;;;;4.53;1.15;;;24.40;90.90;;;;;;5016963;28;20017;-88
2022/08/26 10:44:26;;;;;;;4.80;1.35;;;24.40;90.90;;;;;;5034627;28;20022;-87
2022/08/26 10:46:57;;;;;;;4.68;1.27;;;24.40;90.80;;;;;;5000834;28;20034;-88
2022/08/26 10:49:23;;;;;;;5.82;1.75;;;24.30;90.70;;;;;;5016943;28;20475;-88
2022/08/26 10:51:52;;;;;;;4.32;1.30;;;24.40;90.70;;;;;;5000395;28;20040;-88
2022/08/26 10:54:35;;;;;;;3.55;1.23;;;24.40;90.60;;;;;;5034425;28;20039;-88
2022/08/26 10:57:33;;;;;;;5.57;1.38;;;24.40;90.60;;;;;;5016758;28;20025;-87
2022/08/26 11:03:12;;;;;;;2.30;0.93;;;24.40;90.60;;;;;;5034359;28;20395;-88
2022/08/26 11:05:38;;;;;;;4.00;1.10;;;24.40;90.60;;;;;;5017067;28;20045;-88
2022/08/26 11:08:28;;;;;;;4.20;1.40;;;24.40;90.60;;;;;;4984368;28;20032;-88
2022/08/26 11:10:58;;;;;;;5.97;1.27;;;24.40;90.70;;;;;;5006101;28;20033;-88
2022/08/26 11:13:57;;;;;;;5.20;1.20;;;24.50;90.80;;;;;;5002579;28;20017;-88
2022/08/26 11:16:39;;;;;;;3.60;1.10;;;24.40;91.20;;;;;;5005278;28;20821;-88
2022/08/26 11:19:08;;;;;;;4.68;1.30;;;24.50;91.20;;;;;;5020156;28;20022;-90
2022/08/26 11:22:10;;;;;;;4.18;1.40;;;24.50;91.40;;;;;;5013819;28;20028;-91
2022/08/26 11:25:00;;;;;;;6.60;1.50;;;24.50;91.40;;;;;;4927575;29;20027;-91
2022/08/26 11:27:28;;;;;;;3.10;1.33;;;24.50;91.40;;;;;;5005471;28;20041;-91
2022/08/26 11:30:00;;;;;;;3.38;1.30;;;24.50;91.40;;;;;;5009954;28;20486;-91
2022/08/26 11:32:54;;;;;;;3.97;1.40;;;24.40;91.30;;;;;;5018949;28;20025;-91
2022/08/26 11:35:23;;;;;;;2.53;1.00;;;24.40;91.10;;;;;;5012642;28;20009;-90
2022/08/26 11:38:02;;;;;;;3.28;1.20;;;24.40;91.00;;;;;;5021453;28;20463;-90
2022/08/26 11:40:39;;;;;;;2.40;1.20;;;24.40;91.00;;;;;;5031667;28;20017;-90
2022/08/26 11:43:18;;;;;;;3.97;1.20;;;24.40;91.00;;;;;;5020232;28;20049;-91
2022/08/26 11:45:59;;;;;;;6.57;1.40;;;24.40;90.90;;;;;;5016333;28;20017;-91
2022/08/26 11:48:44;;;;;;;2.90;1.13;;;24.40;90.80;;;;;;5018064;28;20132;-90
2022/08/26 11:51:19;;;;;;;2.13;0.88;;;24.40;90.80;;;;;;4994593;28;20026;-91
2022/08/26 11:53:44;;;;;;;2.85;1.10;;;24.40;90.70;;;;;;5010186;28;20497;-91
2022/08/26 11:56:23;;;;;;;3.42;1.40;;;24.40;90.70;;;;;;4998482;28;20116;-91
2022/08/26 11:58:50;;;;;;;4.35;1.33;;;24.40;90.60;;;;;;5020514;28;20108;-91
2022/08/26 12:01:31;;;;;;;4.03;1.40;;;24.40;90.60;;;;;;5003447;28;20033;-90
2022/08/26 12:04:03;;;;;;;3.63;1.00;;;24.40;90.70;;;;;;5021102;28;20028;-89
2022/08/26 12:06:35;;;;;;;4.55;1.10;;;24.40;90.80;;;;;;5020539;28;20025;-90
2022/08/26 12:09:09;;;;;;;3.35;1.10;;;24.40;90.90;;;;;;5021537;28;20032;-92
2022/08/26 12:11:37;;;;;;;3.60;1.33;;;24.40;90.90;;;;;;5020360;28;20036;-93
2022/08/26 12:14:16;;;;;;;6.32;1.60;;;24.40;91.00;;;;;;5020393;28;20018;-92
2022/08/26 12:16:42;;;;;;;4.20;1.38;;;24.40;91.10;;;;;;5020410;28;20493;-91
2022/08/26 12:19:29;;;;;;;3.17;0.82;;;24.40;91.30;;;;;;5021059;28;20095;-91
2022/08/26 12:22:06;;;;;;;3.13;0.93;;;24.40;91.20;;;;;;5020191;28;20048;-92
2022/08/26 12:24:32;;;;;;;3.42;1.10;;;24.40;91.10;;;;;;5020160;28;20120;-92
2022/08/26 12:27:21;;;;;;;1.65;0.88;;;24.40;91.10;;;;;;5003358;28;20057;-92
2022/08/26 12:30:21;;;;;;;3.08;0.90;;;24.40;91.00;;;;;;5002342;28;20049;-91
2022/08/26 12:33:01;;;;;;;6.05;1.00;;;24.40;91.00;;;;;;4988527;28;20065;-91
2022/08/26 12:35:27;;;;;;;4.40;1.10;;;24.40;91.00;;;;;;5020083;28;20463;-91
2022/08/26 12:37:54;;;;;;;1.88;0.70;;;24.40;90.90;;;;;;5020391;28;20026;-91
2022/08/26 12:40:38;;;;;;;2.47;0.90;;;24.40;90.80;;;;;;5003808;28;20022;-92
2022/08/26 12:43:05;;;;;;;4.55;1.00;;;24.40;90.70;;;;;;5020327;28;20067;-91
2022/08/26 12:45:34;;;;;;;5.10;1.27;;;24.40;90.60;;;;;;5019889;28;20025;-91
2022/08/26 12:48:13;;;;;;;3.60;1.40;;;24.40;90.60;;;;;;5020018;28;20467;-91
2022/08/26 12:50:46;;;;;;;3.25;1.00;;;24.40;90.50;;;;;;5011577;28;20079;-91
2022/08/26 12:53:17;;;;;;;3.65;1.00;;;24.40;90.50;;;;;;5019844;28;20025;-92
2022/08/26 12:55:52;;;;;;;0.88;0.70;;;24.40;90.50;;;;;;5020344;28;20029;-90
2022/08/26 12:58:24;;;;;;;4.80;1.13;;;24.50;90.60;;;;;;5019645;28;20036;-91
2022/08/26 13:01:17;;;;;;;3.28;0.80;;;24.50;90.50;;;;;;5019561;28;20036;-93
2022/08/26 13:03:44;;;;;;;3.40;0.90;;;24.50;90.20;;;;;;5010225;28;20037;-91
2022/08/26 13:06:19;;;;;;;1.67;0.80;;;24.50;90.10;;;;;;5018730;28;20042;-91
2022/08/26 13:08:46;;;;;;;2.78;1.20;;;24.50;90.00;;;;;;5019004;28;20337;-92
2022/08/26 13:11:27;;;;;;;3.00;1.10;;;24.50;89.90;;;;;;5019698;28;20462;-92
2022/08/26 13:13:59;;;;;;;4.25;0.98;;;24.60;89.70;;;;;;5018927;28;20039;-91
2022/08/26 13:16:26;;;;;;;4.07;0.80;;;24.60;89.50;;;;;;5019143;28;20033;-92
2022/08/26 13:18:54;;;;;;;3.30;1.30;;;24.60;89.30;;;;;;5019714;28;20018;-91
2022/08/26 13:21:27;;;;;;;3.15;1.00;;;24.50;89.20;;;;;;5019435;28;20079;-92
2022/08/26 13:23:54;;;;;;;2.28;0.80;;;24.60;89.20;;;;;;5037596;28;20026;-92
2022/08/26 13:26:20;;;;;;;4.07;1.30;;;24.50;89.20;;;;;;5003244;28;20032;-92
2022/08/26 13:28:48;;;;;;;2.65;0.90;;;24.50;89.20;;;;;;5001059;28;20030;-92
2022/08/26 13:31:16;;;;;;;4.45;1.05;;;24.50;89.00;;;;;;5003765;28;20097;-92
2022/08/26 13:33:43;;;;;;;4.00;0.90;;;24.50;88.90;;;;;;4986835;28;20429;-92
2022/08/26 13:36:09;;;;;;;3.33;1.20;;;24.50;88.80;;;;;;5019074;28;20383;-92